Time;durP1;ratioP1;P1;durP2;ratioP2;P2;SDS_P1;SDS_P2;PMS_P1;PMS_P2;Temp;Humidity;BMP_temperature;BMP_pressure;BME280_temperature;BME280_humidity;BME280_pressure;Samples;Min_cycle;Max_cycle;Signal;HPM_P1;HPM_P2
2023/06/20 00:00:50;;;;;;;9.88;6.03;;;25.10;78.60;;;;;;5011595;28;20103;-61
2023/06/20 00:03:16;;;;;;;9.77;5.75;;;24.90;78.50;;;;;;5011655;28;20152;-61
2023/06/20 00:05:42;;;;;;;10.52;5.63;;;25.00;78.60;;;;;;5009898;28;20040;-68
2023/06/20 00:08:08;;;;;;;8.25;5.47;;;25.10;78.60;;;;;;5010619;28;20042;-60
2023/06/20 00:10:34;;;;;;;9.60;5.93;;;25.20;78.90;;;;;;5010924;28;20052;-70
2023/06/20 00:12:59;;;;;;;12.02;5.80;;;25.10;78.70;;;;;;5011502;28;20046;-63
2023/06/20 00:15:26;;;;;;;10.02;5.72;;;24.90;78.50;;;;;;5010821;28;20048;-60
2023/06/20 00:17:55;;;;;;;8.80;5.97;;;25.20;79.00;;;;;;5010000;28;20440;-61
2023/06/20 00:20:20;;;;;;;9.77;5.88;;;25.00;78.90;;;;;;5011173;28;20096;-66
2023/06/20 00:22:50;;;;;;;7.63;5.50;;;25.10;78.40;;;;;;5013394;28;20045;-66
2023/06/20 00:25:17;;;;;;;10.43;6.03;;;25.10;78.60;;;;;;5014035;28;20112;-66
2023/06/20 00:27:42;;;;;;;8.27;6.00;;;25.10;78.70;;;;;;5011841;28;20395;-62
2023/06/20 00:30:08;;;;;;;8.00;6.03;;;24.60;78.20;;;;;;5013704;28;20124;-69
2023/06/20 00:32:34;;;;;;;8.68;5.60;;;25.10;78.10;;;;;;5011806;28;20045;-66
2023/06/20 00:35:00;;;;;;;9.40;6.15;;;24.70;78.30;;;;;;5014103;28;20145;-61
2023/06/20 00:37:26;;;;;;;9.50;5.90;;;25.00;78.30;;;;;;5014561;28;20107;-60
2023/06/20 00:39:52;;;;;;;10.73;6.18;;;25.00;78.20;;;;;;5013485;28;20096;-66
2023/06/20 00:42:19;;;;;;;9.20;5.45;;;25.00;78.40;;;;;;5013640;28;20049;-68
2023/06/20 00:44:45;;;;;;;10.50;6.43;;;25.30;78.70;;;;;;5011035;28;20308;-60
2023/06/20 00:47:14;;;;;;;8.02;6.03;;;25.00;78.60;;;;;;5012583;28;20419;-61
2023/06/20 00:49:39;;;;;;;9.48;6.68;;;24.90;81.90;;;;;;5009549;28;20121;-62
2023/06/20 00:52:05;;;;;;;9.98;6.30;;;24.70;78.20;;;;;;4995843;28;20200;-64
2023/06/20 00:54:31;;;;;;;8.90;6.28;;;25.00;78.00;;;;;;5013263;28;20053;-64
2023/06/20 00:56:57;;;;;;;8.60;6.00;;;24.80;78.40;;;;;;5013408;28;20092;-68
2023/06/20 00:59:23;;;;;;;9.35;5.95;;;24.80;78.10;;;;;;5011555;28;20111;-61
2023/06/20 01:01:49;;;;;;;8.38;6.32;;;24.80;81.90;;;;;;5009199;28;20046;-61
2023/06/20 01:04:14;;;;;;;8.18;6.15;;;24.70;78.20;;;;;;5013388;28;20042;-60
2023/06/20 01:06:49;;;;;;;10.20;6.53;;;24.70;78.10;;;;;;5011053;28;20424;-60
2023/06/20 01:09:17;;;;;;;9.57;6.50;;;25.00;82.00;;;;;;5010859;28;20042;-61
2023/06/20 01:11:55;;;;;;;11.18;7.32;;;24.80;78.50;;;;;;5012012;28;20049;-60
2023/06/20 01:14:53;;;;;;;9.23;6.82;;;24.30;81.70;;;;;;4997631;28;20046;-61
2023/06/20 01:17:24;;;;;;;9.90;7.10;;;24.80;81.50;;;;;;5006867;28;20054;-60
2023/06/20 01:20:05;;;;;;;9.35;6.97;;;24.70;77.10;;;;;;5012771;28;20515;-61
2023/06/20 01:22:57;;;;;;;9.55;6.72;;;24.80;78.70;;;;;;5013590;28;20049;-62
2023/06/20 01:25:31;;;;;;;9.50;7.30;;;24.80;77.20;;;;;;5012472;28;20038;-61
2023/06/20 01:28:04;;;;;;;9.73;7.10;;;24.80;78.80;;;;;;5012826;28;20423;-62
2023/06/20 01:30:38;;;;;;;10.18;7.10;;;24.60;78.70;;;;;;5009530;28;20558;-60
2023/06/20 01:33:04;;;;;;;10.40;6.97;;;25.00;78.90;;;;;;5011625;28;20030;-62
2023/06/20 01:35:30;;;;;;;11.02;7.07;;;24.70;78.60;;;;;;5006544;28;20092;-61
2023/06/20 01:37:58;;;;;;;11.73;7.78;;;24.90;81.80;;;;;;5011337;28;20041;-63
2023/06/20 01:40:24;;;;;;;10.73;6.93;;;24.80;78.60;;;;;;4994520;28;20041;-66
2023/06/20 01:42:50;;;;;;;9.82;7.18;;;24.50;78.20;;;;;;5011201;28;20454;-63
2023/06/20 01:45:15;;;;;;;9.68;7.13;;;24.80;78.40;;;;;;5013769;28;20121;-60
2023/06/20 01:47:41;;;;;;;10.80;7.18;;;24.80;81.60;;;;;;5009247;28;20512;-67
2023/06/20 01:50:07;;;;;;;12.02;7.25;;;24.70;78.40;;;;;;4994611;28;20459;-63
2023/06/20 01:52:35;;;;;;;10.63;7.60;;;24.80;78.00;;;;;;5006002;28;20058;-61
2023/06/20 01:55:04;;;;;;;9.75;6.80;;;24.60;78.50;;;;;;5011854;28;20052;-60
2023/06/20 01:57:30;;;;;;;11.15;7.15;;;24.70;78.70;;;;;;5012239;28;20037;-62
2023/06/20 01:59:56;;;;;;;11.48;7.68;;;24.60;78.30;;;;;;5009110;28;20103;-69
2023/06/20 02:02:21;;;;;;;11.68;7.78;;;24.50;78.30;;;;;;5011046;28;20497;-62
2023/06/20 02:04:47;;;;;;;10.25;7.70;;;24.80;81.70;;;;;;5010995;28;20038;-61
2023/06/20 02:07:13;;;;;;;11.05;7.53;;;24.80;78.50;;;;;;4993253;28;20523;-64
2023/06/20 02:09:39;;;;;;;9.45;6.85;;;24.70;78.50;;;;;;4988387;28;20038;-68
2023/06/20 02:12:07;;;;;;;14.93;7.95;;;24.80;78.50;;;;;;5012767;28;20058;-62
2023/06/20 02:14:32;;;;;;;13.43;8.40;;;24.90;78.50;;;;;;5012599;28;20030;-61
2023/06/20 02:17:00;;;;;;;11.73;8.00;;;24.60;78.30;;;;;;4994635;28;20056;-61
2023/06/20 02:19:26;;;;;;;12.10;8.77;;;24.80;78.70;;;;;;5010994;28;20080;-61
2023/06/20 02:21:51;;;;;;;13.68;8.35;;;24.80;78.60;;;;;;5010053;28;20069;-62
2023/06/20 02:24:19;;;;;;;11.57;7.70;;;24.70;81.90;;;;;;5011436;28;20034;-64
2023/06/20 02:26:44;;;;;;;11.95;8.55;;;24.80;78.70;;;;;;5009678;28;20615;-61
2023/06/20 02:29:10;;;;;;;9.77;8.00;;;24.80;78.70;;;;;;5011476;28;20042;-61
2023/06/20 02:31:40;;;;;;;11.60;7.60;;;24.70;78.60;;;;;;5011148;28;20038;-64
2023/06/20 02:34:08;;;;;;;11.35;8.48;;;24.70;78.90;;;;;;5011393;28;20054;-60
2023/06/20 02:36:34;;;;;;;10.30;8.00;;;24.70;78.80;;;;;;4995484;28;20550;-70
2023/06/20 02:39:00;;;;;;;11.70;8.35;;;24.70;82.30;;;;;;5009159;28;20049;-64
2023/06/20 02:41:25;;;;;;;12.50;8.65;;;24.60;78.50;;;;;;5010522;28;20072;-61
2023/06/20 02:43:51;;;;;;;11.15;8.30;;;24.60;78.50;;;;;;5003969;28;20038;-64
2023/06/20 02:46:31;;;;;;;12.57;8.80;;;24.60;78.60;;;;;;5012233;28;20045;-68
2023/06/20 02:49:17;;;;;;;10.98;8.35;;;24.90;77.80;;;;;;5009563;28;20046;-65
2023/06/20 02:52:08;;;;;;;14.40;8.38;;;24.50;77.70;;;;;;5009984;28;20048;-62
2023/06/20 02:55:13;;;;;;;13.93;9.07;;;24.50;77.70;;;;;;5002080;28;20046;-61
2023/06/20 02:57:39;;;;;;;10.52;8.00;;;24.60;77.70;;;;;;4998495;28;20049;-62
2023/06/20 03:00:09;;;;;;;10.82;8.60;;;24.80;78.80;;;;;;5009794;28;20599;-62
2023/06/20 03:02:39;;;;;;;12.50;8.45;;;24.80;78.20;;;;;;4995431;28;20050;-62
2023/06/20 03:05:05;;;;;;;11.35;8.02;;;24.60;81.80;;;;;;4994416;28;20053;-61
2023/06/20 03:07:33;;;;;;;13.23;8.75;;;24.60;78.30;;;;;;5010319;28;20049;-61
2023/06/20 03:10:00;;;;;;;13.93;8.13;;;24.60;81.70;;;;;;5010757;28;20046;-62
2023/06/20 03:12:26;;;;;;;10.55;8.55;;;24.60;78.60;;;;;;5010050;28;20046;-62
2023/06/20 03:14:51;;;;;;;11.48;8.63;;;24.60;78.60;;;;;;5010001;28;20045;-62
2023/06/20 03:17:17;;;;;;;10.75;8.13;;;24.70;78.60;;;;;;5010927;28;20383;-61
2023/06/20 03:19:43;;;;;;;11.13;8.50;;;24.60;78.50;;;;;;5010518;28;20054;-60
2023/06/20 03:22:09;;;;;;;9.98;8.27;;;24.60;81.70;;;;;;5009764;28;20199;-61
2023/06/20 03:24:35;;;;;;;13.32;9.10;;;24.60;78.50;;;;;;5011876;28;20096;-66
2023/06/20 03:27:00;;;;;;;13.75;9.25;;;24.70;78.70;;;;;;5010849;28;20049;-60
2023/06/20 03:29:26;;;;;;;13.77;9.07;;;24.60;78.50;;;;;;5011420;28;20129;-66
2023/06/20 03:31:52;;;;;;;12.88;8.20;;;24.60;81.60;;;;;;5005352;28;20607;-67
2023/06/20 03:34:18;;;;;;;12.77;8.57;;;24.50;78.50;;;;;;5010994;28;20089;-66
2023/06/20 03:36:43;;;;;;;10.65;8.27;;;24.60;78.60;;;;;;5012127;28;20391;-60
2023/06/20 03:39:09;;;;;;;11.48;8.90;;;24.60;78.60;;;;;;5009652;28;20057;-64
2023/06/20 03:41:35;;;;;;;13.60;8.80;;;24.80;78.70;;;;;;5010521;28;20053;-61
2023/06/20 03:44:01;;;;;;;13.68;8.52;;;24.70;78.60;;;;;;5011355;28;20404;-69
2023/06/20 03:46:26;;;;;;;12.25;8.70;;;24.80;78.70;;;;;;5011779;28;20141;-62
2023/06/20 03:48:52;;;;;;;13.07;8.40;;;24.50;78.40;;;;;;5010282;28;20132;-70
2023/06/20 03:51:18;;;;;;;11.95;8.80;;;24.80;78.50;;;;;;5010270;28;20038;-71
2023/06/20 03:53:44;;;;;;;12.50;9.02;;;24.70;78.60;;;;;;5011955;28;20103;-71
2023/06/20 03:56:10;;;;;;;12.10;8.82;;;24.70;78.70;;;;;;5011710;28;20042;-66
2023/06/20 03:58:36;;;;;;;12.10;8.27;;;25.00;78.90;;;;;;5014559;28;20056;-71
2023/06/20 04:01:02;;;;;;;11.60;8.18;;;25.00;78.80;;;;;;5011172;28;20041;-66
2023/06/20 04:03:28;;;;;;;12.55;9.20;;;24.80;78.50;;;;;;5014920;28;20483;-63
2023/06/20 04:05:54;;;;;;;13.13;8.50;;;24.70;78.70;;;;;;5015362;28;20045;-69
2023/06/20 04:08:21;;;;;;;12.18;9.02;;;24.80;78.60;;;;;;5011229;28;20042;-63
2023/06/20 04:10:46;;;;;;;13.00;9.00;;;24.80;78.80;;;;;;5015179;28;20042;-71
2023/06/20 04:13:12;;;;;;;14.25;9.13;;;24.80;82.20;;;;;;5009662;28;20042;-71
2023/06/20 04:15:38;;;;;;;13.18;7.97;;;24.90;78.70;;;;;;5014555;28;20038;-61
2023/06/20 04:18:04;;;;;;;12.07;7.93;;;25.00;78.80;;;;;;5015379;28;20052;-67
2023/06/20 04:20:29;;;;;;;11.80;8.27;;;24.90;78.80;;;;;;5013499;28;20064;-70
2023/06/20 04:22:55;;;;;;;11.02;8.75;;;24.80;78.60;;;;;;5014408;28;20100;-61
2023/06/20 04:25:21;;;;;;;10.40;8.25;;;24.80;78.70;;;;;;5010902;28;20170;-67
2023/06/20 04:27:53;;;;;;;12.02;8.38;;;24.60;78.60;;;;;;5015119;28;20121;-67
2023/06/20 04:30:19;;;;;;;13.23;8.20;;;24.80;78.80;;;;;;5014311;28;20050;-65
2023/06/20 04:32:45;;;;;;;13.13;9.32;;;24.80;82.00;;;;;;5013128;28;20133;-65
2023/06/20 04:35:11;;;;;;;13.23;8.05;;;25.00;78.80;;;;;;5014421;28;20128;-61
2023/06/20 04:37:38;;;;;;;12.38;8.50;;;24.60;78.60;;;;;;5014660;28;20046;-71
2023/06/20 04:40:06;;;;;;;12.27;8.18;;;24.60;78.80;;;;;;5013313;28;20125;-67
2023/06/20 04:42:31;;;;;;;13.35;8.68;;;24.80;78.30;;;;;;5009109;28;20086;-72
2023/06/20 04:44:57;;;;;;;9.90;7.97;;;24.80;78.80;;;;;;5013759;28;20089;-68
2023/06/20 04:47:23;;;;;;;11.55;8.60;;;24.80;78.90;;;;;;5013090;28;20108;-70
2023/06/20 04:49:49;;;;;;;12.93;8.80;;;25.10;78.80;;;;;;5012864;28;20104;-61
2023/06/20 04:52:15;;;;;;;11.48;8.68;;;24.90;78.90;;;;;;5012221;28;20107;-61
2023/06/20 04:54:42;;;;;;;12.45;8.30;;;24.90;79.00;;;;;;5014640;28;20112;-70
2023/06/20 04:57:08;;;;;;;11.70;8.85;;;24.70;79.00;;;;;;5014240;28;20046;-69
2023/06/20 04:59:38;;;;;;;11.38;8.18;;;24.60;78.70;;;;;;5007162;28;20060;-70
2023/06/20 05:02:05;;;;;;;11.52;9.13;;;24.80;78.90;;;;;;5013116;28;20088;-70
2023/06/20 05:04:31;;;;;;;11.60;8.43;;;24.70;78.50;;;;;;5012923;28;20396;-63
2023/06/20 05:06:57;;;;;;;13.45;8.70;;;25.00;78.90;;;;;;5013544;28;20057;-69
2023/06/20 05:09:23;;;;;;;9.85;8.07;;;24.90;78.70;;;;;;5011764;28;20042;-71
2023/06/20 05:11:49;;;;;;;11.48;8.43;;;24.80;78.70;;;;;;5013303;28;20107;-69
2023/06/20 05:14:14;;;;;;;11.77;9.23;;;24.80;78.70;;;;;;5012003;28;20107;-68
2023/06/20 05:16:40;;;;;;;12.48;8.38;;;25.00;78.70;;;;;;5009383;28;20046;-68
2023/06/20 05:19:06;;;;;;;10.10;8.57;;;24.90;81.90;;;;;;5013435;28;20665;-69
2023/06/20 05:21:31;;;;;;;11.90;8.65;;;24.90;78.70;;;;;;5013739;28;20042;-69
2023/06/20 05:23:58;;;;;;;12.48;9.00;;;25.10;78.90;;;;;;5012572;28;20387;-71
2023/06/20 05:26:23;;;;;;;12.13;8.77;;;25.10;78.70;;;;;;5013566;28;20472;-62
2023/06/20 05:28:49;;;;;;;12.45;8.65;;;25.00;78.80;;;;;;5012877;28;20121;-63
2023/06/20 05:31:15;;;;;;;11.65;8.45;;;25.10;78.90;;;;;;5013173;28;20089;-69
2023/06/20 05:33:41;;;;;;;11.73;8.57;;;25.10;78.80;;;;;;5006822;28;20120;-62
2023/06/20 05:36:06;;;;;;;12.10;8.65;;;24.70;78.60;;;;;;5013155;28;20045;-70
2023/06/20 05:38:33;;;;;;;12.15;8.90;;;25.10;78.90;;;;;;5013370;28;20542;-68
2023/06/20 05:40:59;;;;;;;22.42;12.05;;;25.10;78.90;;;;;;5013436;28;20041;-70
2023/06/20 05:43:25;;;;;;;17.45;14.65;;;25.20;79.00;;;;;;5011303;28;20045;-61
2023/06/20 05:45:51;;;;;;;17.88;14.30;;;25.10;78.80;;;;;;5012824;28;20054;-62
2023/06/20 05:48:17;;;;;;;19.52;15.27;;;25.40;79.50;;;;;;5013679;28;20101;-74
2023/06/20 05:50:42;;;;;;;20.17;15.55;;;25.10;82.20;;;;;;5011669;28;20079;-73
2023/06/20 05:53:08;;;;;;;18.77;14.68;;;25.30;79.30;;;;;;5010099;28;20111;-74
2023/06/20 05:55:34;;;;;;;19.92;14.85;;;24.90;82.70;;;;;;5011441;28;20350;-70
2023/06/20 05:58:00;;;;;;;17.90;14.65;;;25.20;79.70;;;;;;5013355;28;20033;-71
2023/06/20 06:00:26;;;;;;;16.85;14.43;;;24.80;79.60;;;;;;5012247;28;20403;-69
2023/06/20 06:02:51;;;;;;;18.50;14.55;;;24.70;83.40;;;;;;5012495;28;20050;-72
2023/06/20 06:05:17;;;;;;;18.08;14.55;;;24.70;83.70;;;;;;5011155;28;20053;-70
2023/06/20 06:07:43;;;;;;;18.38;14.45;;;24.80;80.40;;;;;;5006357;28;20046;-63
2023/06/20 06:10:09;;;;;;;16.73;14.93;;;24.70;80.60;;;;;;5012481;28;20120;-73
2023/06/20 06:12:36;;;;;;;17.92;14.15;;;24.50;83.50;;;;;;5010966;28;20048;-62
2023/06/20 06:15:03;;;;;;;19.13;14.50;;;24.50;80.90;;;;;;5012298;28;20046;-64
2023/06/20 06:17:30;;;;;;;18.42;14.40;;;24.60;80.80;;;;;;5011822;28;20080;-70
2023/06/20 06:19:56;;;;;;;18.63;14.60;;;24.60;84.60;;;;;;5009839;28;20045;-68
2023/06/20 06:22:22;;;;;;;20.88;14.15;;;24.70;81.00;;;;;;5013047;28;20048;-63
2023/06/20 06:24:48;;;;;;;20.10;13.57;;;24.80;80.90;;;;;;5005725;28;20059;-68
2023/06/20 06:27:13;;;;;;;16.38;13.40;;;24.60;80.70;;;;;;5011940;28;20599;-71
2023/06/20 06:29:39;;;;;;;16.90;12.88;;;24.70;84.40;;;;;;5009403;28;20906;-66
2023/06/20 06:32:06;;;;;;;15.95;12.70;;;24.70;80.70;;;;;;5011420;28;20391;-68
2023/06/20 06:34:32;;;;;;;15.85;13.07;;;24.80;80.50;;;;;;5010880;28;20061;-71
2023/06/20 06:36:58;;;;;;;20.65;13.27;;;25.10;81.00;;;;;;5010960;28;20045;-71
2023/06/20 06:39:24;;;;;;;17.35;13.13;;;25.00;81.00;;;;;;5010351;28;20092;-69
2023/06/20 06:41:50;;;;;;;16.77;11.93;;;24.60;81.00;;;;;;5003636;28;20134;-70
2023/06/20 06:44:16;;;;;;;22.27;13.15;;;24.80;80.90;;;;;;5012488;28;20058;-71
2023/06/20 06:46:41;;;;;;;22.50;12.10;;;24.90;81.00;;;;;;5012304;28;20412;-71
2023/06/20 06:49:08;;;;;;;18.08;13.63;;;24.90;81.00;;;;;;5009688;28;20119;-69
2023/06/20 06:51:34;;;;;;;17.02;12.70;;;24.50;80.70;;;;;;5009000;28;20061;-68
2023/06/20 06:54:00;;;;;;;18.83;12.45;;;24.60;81.20;;;;;;5009738;28;20045;-70
2023/06/20 06:56:26;;;;;;;14.38;12.48;;;24.70;81.00;;;;;;5012065;28;20040;-67
2023/06/20 06:58:56;;;;;;;16.13;12.02;;;24.60;81.00;;;;;;5010039;28;20124;-68
2023/06/20 07:01:22;;;;;;;15.73;11.88;;;25.00;85.10;;;;;;5011268;28;22342;-69
2023/06/20 07:03:47;;;;;;;16.65;11.88;;;24.80;81.50;;;;;;5010945;28;20037;-71
2023/06/20 07:06:13;;;;;;;14.43;10.20;;;24.90;81.60;;;;;;5011892;28;20037;-69
2023/06/20 07:08:39;;;;;;;19.13;10.27;;;24.80;84.60;;;;;;5012313;28;20050;-62
2023/06/20 07:11:05;;;;;;;14.80;10.63;;;24.90;81.20;;;;;;5008721;28;20411;-68
2023/06/20 07:13:31;;;;;;;16.45;10.25;;;25.00;81.20;;;;;;5010711;28;20037;-67
2023/06/20 07:15:56;;;;;;;17.92;10.23;;;25.10;80.90;;;;;;5009792;28;20077;-65
2023/06/20 07:18:22;;;;;;;18.20;9.90;;;25.00;81.00;;;;;;5001804;28;20050;-68
2023/06/20 07:20:48;;;;;;;12.60;10.43;;;25.10;80.80;;;;;;5011133;28;20050;-67
2023/06/20 07:23:14;;;;;;;12.32;9.95;;;25.30;80.80;;;;;;5009462;28;20046;-67
2023/06/20 07:25:39;;;;;;;18.88;9.55;;;25.30;80.60;;;;;;5011999;28;20042;-66
2023/06/20 07:28:06;;;;;;;13.80;9.93;;;25.40;80.30;;;;;;5012142;28;20049;-68
2023/06/20 07:30:32;;;;;;;17.48;10.70;;;25.50;80.60;;;;;;5009733;28;20108;-68
2023/06/20 07:32:58;;;;;;;18.48;9.70;;;25.40;80.50;;;;;;5011374;28;20065;-68
2023/06/20 07:35:23;;;;;;;17.10;9.82;;;25.20;80.40;;;;;;5013337;28;20396;-68
2023/06/20 07:37:49;;;;;;;27.08;10.50;;;25.20;80.60;;;;;;5016074;28;20048;-68
2023/06/20 07:40:15;;;;;;;13.35;9.77;;;25.30;80.60;;;;;;5015886;28;20104;-67
2023/06/20 07:42:41;;;;;;;16.20;10.18;;;25.30;80.90;;;;;;5015510;28;20054;-68
2023/06/20 07:45:07;;;;;;;14.40;9.98;;;25.30;80.90;;;;;;5014144;28;20042;-68
2023/06/20 07:47:33;;;;;;;17.02;10.20;;;25.60;80.80;;;;;;5013239;28;20496;-68
2023/06/20 07:49:59;;;;;;;20.42;10.50;;;25.50;81.00;;;;;;5010308;28;20176;-68
2023/06/20 07:52:24;;;;;;;16.10;11.10;;;25.40;80.80;;;;;;5015421;28;20411;-68
2023/06/20 07:54:50;;;;;;;16.40;10.82;;;25.40;81.00;;;;;;5013385;28;20395;-68
2023/06/20 07:57:16;;;;;;;18.38;10.85;;;25.40;81.00;;;;;;5014946;28;20080;-61
2023/06/20 07:59:41;;;;;;;19.60;11.48;;;25.10;84.60;;;;;;5015272;28;20801;-70
2023/06/20 08:02:07;;;;;;;14.57;11.27;;;25.20;80.90;;;;;;5015270;28;20042;-68
2023/06/20 08:04:33;;;;;;;22.92;11.00;;;25.60;85.10;;;;;;5013303;28;20042;-65
2023/06/20 08:06:59;;;;;;;15.90;11.57;;;25.10;81.00;;;;;;5010375;28;20073;-62
2023/06/20 08:09:24;;;;;;;18.20;11.77;;;25.40;81.30;;;;;;5014273;28;20042;-61
2023/06/20 08:11:50;;;;;;;15.32;11.70;;;25.20;81.30;;;;;;5015269;28;20037;-64
2023/06/20 08:14:18;;;;;;;16.80;11.98;;;25.00;81.30;;;;;;5013494;28;20034;-71
2023/06/20 08:16:44;;;;;;;18.63;12.18;;;25.10;81.50;;;;;;5011617;28;20080;-71
2023/06/20 08:19:10;;;;;;;18.30;12.10;;;25.10;81.20;;;;;;5013795;28;20467;-69
2023/06/20 08:21:37;;;;;;;19.05;12.07;;;25.00;81.50;;;;;;5008943;28;20050;-67
2023/06/20 08:24:04;;;;;;;17.60;12.27;;;25.20;82.10;;;;;;5009796;28;20045;-72
2023/06/20 08:26:30;;;;;;;17.38;11.90;;;25.10;81.90;;;;;;5013011;28;20049;-69
2023/06/20 08:28:55;;;;;;;15.90;11.23;;;24.90;82.10;;;;;;5014813;28;20041;-69
2023/06/20 08:31:21;;;;;;;14.48;11.82;;;25.10;82.40;;;;;;5012917;28;20464;-69
2023/06/20 08:33:47;;;;;;;15.60;12.40;;;24.80;86.00;;;;;;5014121;28;20046;-68
2023/06/20 08:36:13;;;;;;;15.77;11.55;;;25.10;82.30;;;;;;5015047;28;20112;-70
2023/06/20 08:38:39;;;;;;;14.10;11.50;;;25.10;82.60;;;;;;5013453;28;20137;-68
2023/06/20 08:41:11;;;;;;;15.63;12.02;;;25.20;82.70;;;;;;5012474;28;20092;-70
2023/06/20 08:43:37;;;;;;;14.38;11.73;;;24.90;83.00;;;;;;5013344;28;20045;-66
2023/06/20 08:46:03;;;;;;;14.50;11.63;;;25.20;82.80;;;;;;5013369;28;20057;-69
2023/06/20 08:48:29;;;;;;;16.17;11.85;;;25.10;82.70;;;;;;5013187;28;20420;-70
2023/06/20 08:50:54;;;;;;;14.52;11.48;;;25.10;82.80;;;;;;5012560;28;20050;-68
2023/06/20 08:53:20;;;;;;;14.18;12.07;;;25.00;82.90;;;;;;5010980;28;20049;-67
2023/06/20 08:55:46;;;;;;;16.38;12.25;;;25.00;83.10;;;;;;4995002;28;20046;-64
2023/06/20 08:58:12;;;;;;;14.00;11.98;;;25.00;83.10;;;;;;5010682;28;20079;-65
2023/06/20 09:00:40;;;;;;;16.25;12.00;;;25.20;83.20;;;;;;5012763;28;20120;-64
2023/06/20 09:03:06;;;;;;;16.67;13.13;;;25.30;83.40;;;;;;5013616;28;20033;-70
2023/06/20 09:05:40;;;;;;;18.00;12.77;;;25.00;83.20;;;;;;5008963;28;20454;-69
2023/06/20 09:08:06;;;;;;;16.98;12.25;;;25.10;83.60;;;;;;5010515;28;20101;-69
2023/06/20 09:10:31;;;;;;;16.50;11.77;;;25.20;83.50;;;;;;5013695;28;20388;-67
2023/06/20 09:12:57;;;;;;;14.65;11.75;;;25.10;83.50;;;;;;5007348;28;20054;-71
2023/06/20 09:15:27;;;;;;;16.88;12.55;;;25.10;83.50;;;;;;5014198;28;20073;-68
2023/06/20 09:17:59;;;;;;;17.20;12.07;;;25.00;83.80;;;;;;5012954;28;20057;-69
2023/06/20 09:20:26;;;;;;;16.35;12.25;;;25.30;82.60;;;;;;5013051;28;20046;-66
2023/06/20 09:22:52;;;;;;;16.50;12.00;;;25.10;84.10;;;;;;5011049;28;20050;-64
2023/06/20 09:25:22;;;;;;;15.27;12.50;;;25.00;83.80;;;;;;5012408;28;20395;-69
2023/06/20 09:27:48;;;;;;;15.40;12.50;;;25.10;84.40;;;;;;5012549;28;20033;-64
2023/06/20 09:30:14;;;;;;;14.60;11.38;;;25.20;83.90;;;;;;5011938;28;20041;-72
2023/06/20 09:32:40;;;;;;;16.23;11.90;;;25.10;83.60;;;;;;5012318;28;20052;-75
2023/06/20 09:35:07;;;;;;;14.48;12.45;;;25.30;84.00;;;;;;5013187;28;20056;-77
2023/06/20 09:37:47;;;;;;;13.80;11.90;;;25.40;83.60;;;;;;5011657;28;20042;-74
2023/06/20 09:40:17;;;;;;;14.25;11.40;;;25.40;83.10;;;;;;5010921;28;20041;-76
2023/06/20 09:42:43;;;;;;;13.63;11.73;;;25.60;84.90;;;;;;5013185;28;20046;-73
2023/06/20 09:45:13;;;;;;;14.27;11.32;;;25.40;84.60;;;;;;5013044;28;20131;-71
2023/06/20 09:47:40;;;;;;;14.65;11.38;;;25.20;84.20;;;;;;5011693;28;20124;-68
2023/06/20 09:50:19;;;;;;;16.75;11.85;;;25.60;84.60;;;;;;5006117;28;20128;-61
2023/06/20 09:53:06;;;;;;;13.55;11.27;;;25.50;83.10;;;;;;5011609;28;20030;-63
2023/06/20 09:55:34;;;;;;;14.57;10.15;;;25.60;83.30;;;;;;5011396;28;20054;-70
2023/06/20 09:58:01;;;;;;;12.15;9.88;;;25.60;84.40;;;;;;5010406;28;20050;-68
2023/06/20 10:00:27;;;;;;;11.43;10.23;;;25.70;84.80;;;;;;5005381;28;20061;-68
2023/06/20 10:02:54;;;;;;;14.63;10.23;;;25.90;83.90;;;;;;5011511;28;20046;-68
2023/06/20 10:05:20;;;;;;;14.50;10.32;;;25.70;83.40;;;;;;5009033;28;20132;-69
2023/06/20 10:07:48;;;;;;;11.25;9.68;;;26.10;83.90;;;;;;5009596;28;20057;-70
2023/06/20 10:10:15;;;;;;;13.88;10.10;;;26.10;83.70;;;;;;5011119;28;20042;-71
2023/06/20 10:12:42;;;;;;;13.60;10.32;;;26.00;83.60;;;;;;5003519;28;20500;-65
2023/06/20 10:15:08;;;;;;;12.68;10.07;;;26.20;83.60;;;;;;5011198;28;20034;-70
2023/06/20 10:17:41;;;;;;;11.85;9.18;;;26.10;83.10;;;;;;5008873;28;20120;-67
2023/06/20 10:20:08;;;;;;;12.95;9.80;;;26.00;83.40;;;;;;5011509;28;20133;-69
2023/06/20 10:22:41;;;;;;;12.20;10.13;;;26.40;83.10;;;;;;5010001;28;20054;-68
2023/06/20 10:25:14;;;;;;;;;;;26.60;83.40;;;;;;5012740;28;20076;-67
2023/06/20 10:27:57;;;;;;;15.93;10.73;;;26.60;83.70;;;;;;5012520;28;20008;-67
2023/06/20 10:30:52;;;;;;;14.70;10.13;;;26.30;83.10;;;;;;5011376;28;20049;-66
2023/06/20 10:33:30;;;;;;;14.20;10.18;;;26.70;81.90;;;;;;5011456;28;20045;-73
2023/06/20 10:35:57;;;;;;;12.27;9.98;;;26.80;81.60;;;;;;5012429;28;20503;-72
2023/06/20 10:38:24;;;;;;;12.30;9.60;;;26.60;82.40;;;;;;5009075;28;20050;-63
2023/06/20 10:41:05;;;;;;;12.52;10.00;;;26.80;82.30;;;;;;5009994;28;20045;-60
2023/06/20 10:43:33;;;;;;;10.20;9.10;;;26.90;82.90;;;;;;5009541;28;20400;-61
2023/06/20 10:46:00;;;;;;;13.25;10.38;;;27.00;82.50;;;;;;4994913;28;20058;-62
2023/06/20 10:48:29;;;;;;;12.77;10.10;;;26.80;82.40;;;;;;5011814;28;20057;-60
2023/06/20 10:51:01;;;;;;;16.67;10.60;;;26.70;82.10;;;;;;5006208;28;20415;-67
2023/06/20 10:53:29;;;;;;;14.23;10.45;;;26.80;82.50;;;;;;5009453;28;20041;-69
2023/06/20 10:55:55;;;;;;;17.33;11.57;;;27.10;82.60;;;;;;5008149;28;20045;-68
2023/06/20 10:58:21;;;;;;;12.35;10.85;;;27.10;82.20;;;;;;5011905;28;20479;-72
2023/06/20 11:00:47;;;;;;;15.40;10.70;;;26.80;81.80;;;;;;5012110;28;20046;-68
2023/06/20 11:03:13;;;;;;;14.43;11.15;;;26.80;82.10;;;;;;5008041;28;20096;-71
2023/06/20 11:05:39;;;;;;;13.27;11.02;;;26.90;82.20;;;;;;5011067;28;20038;-72
2023/06/20 11:08:07;;;;;;;13.18;11.18;;;26.80;81.90;;;;;;5010403;28;20372;-71
2023/06/20 11:10:36;;;;;;;25.27;12.30;;;27.30;82.30;;;;;;5011589;28;20042;-73
2023/06/20 11:13:06;;;;;;;14.23;11.25;;;27.10;82.10;;;;;;5007645;28;20038;-60
2023/06/20 11:15:36;;;;;;;13.77;11.10;;;26.90;82.60;;;;;;5009354;28;20038;-60
2023/06/20 11:18:03;;;;;;;16.42;10.98;;;26.90;82.80;;;;;;5011947;28;20116;-74
2023/06/20 11:20:29;;;;;;;13.60;11.27;;;27.00;82.50;;;;;;5009104;28;20392;-63
2023/06/20 11:22:56;;;;;;;14.55;10.32;;;27.00;82.30;;;;;;5011597;28;20044;-64
2023/06/20 11:25:26;;;;;;;15.43;11.27;;;27.10;82.60;;;;;;5010104;28;20052;-60
2023/06/20 11:27:56;;;;;;;12.27;10.98;;;26.90;82.20;;;;;;5008043;28;20097;-74
2023/06/20 11:30:26;;;;;;;13.77;10.32;;;26.90;80.80;;;;;;5004816;28;20106;-74
2023/06/20 11:33:08;;;;;;;15.82;11.63;;;26.80;82.30;;;;;;5010047;28;20083;-71
2023/06/20 11:35:41;;;;;;;;;;;27.30;81.30;;;;;;5007609;28;20428;-70
2023/06/20 11:38:10;;;;;;;20.08;11.63;;;27.10;81.30;;;;;;5009222;28;19926;-72
2023/06/20 11:40:37;;;;;;;14.13;10.55;;;27.20;80.80;;;;;;5010781;28;20049;-68
2023/06/20 11:43:03;;;;;;;14.73;10.95;;;27.20;82.20;;;;;;5010261;28;20076;-74
2023/06/20 11:45:29;;;;;;;15.00;10.68;;;27.30;81.90;;;;;;5009552;28;20449;-75
2023/06/20 11:48:11;;;;;;;14.55;10.15;;;27.30;81.70;;;;;;5003253;28;20140;-73
2023/06/20 11:50:37;;;;;;;12.60;10.43;;;27.50;82.40;;;;;;5011694;28;20042;-73
2023/06/20 11:53:05;;;;;;;12.57;11.27;;;27.30;81.60;;;;;;5009826;28;20562;-71
2023/06/20 11:55:47;;;;;;;13.45;11.38;;;27.40;80.90;;;;;;5008095;28;20456;-73
2023/06/20 11:58:14;;;;;;;13.63;10.82;;;27.30;80.90;;;;;;5009944;28;20380;-74
2023/06/20 12:00:40;;;;;;;14.63;11.63;;;27.40;81.80;;;;;;5011483;28;20413;-74
2023/06/20 12:03:10;;;;;;;13.10;10.35;;;27.20;81.60;;;;;;5006543;28;20046;-72
2023/06/20 12:05:40;;;;;;;12.15;10.38;;;27.40;81.90;;;;;;5007658;28;20420;-71
2023/06/20 12:08:05;;;;;;;16.27;11.27;;;27.60;81.10;;;;;;5010107;28;20053;-68
2023/06/20 12:10:34;;;;;;;12.20;10.90;;;27.30;81.40;;;;;;4999768;28;20046;-72
2023/06/20 12:13:06;;;;;;;15.30;10.73;;;27.60;81.50;;;;;;5005947;28;20433;-72
2023/06/20 12:15:32;;;;;;;12.70;10.07;;;27.40;80.60;;;;;;5010184;28;20092;-64
2023/06/20 12:17:57;;;;;;;12.95;10.55;;;27.60;81.30;;;;;;5011159;28;20476;-73
2023/06/20 12:20:26;;;;;;;15.32;11.82;;;27.90;81.50;;;;;;5010620;28;20041;-72
2023/06/20 12:22:52;;;;;;;15.95;10.98;;;29.50;81.50;;;;;;5014754;28;20042;-69
2023/06/20 12:25:17;;;;;;;22.98;12.15;;;27.50;81.30;;;;;;5013755;28;20598;-73
2023/06/20 12:27:43;;;;;;;21.92;11.60;;;27.50;81.40;;;;;;5013011;28;20093;-63
2023/06/20 12:30:09;;;;;;;24.30;12.52;;;27.50;81.40;;;;;;5013583;28;20103;-70
2023/06/20 12:32:35;;;;;;;30.70;13.82;;;27.60;81.50;;;;;;5014665;28;20045;-72
2023/06/20 12:35:01;;;;;;;25.60;12.57;;;27.50;81.50;;;;;;5014283;28;20096;-68